sensor_id;sensor_type;location;lat;lon;timestamp;temperature;humidity
45735;DHT22;31446;49.632;8.328;2023-05-10T00:01:06;13.70;99.90
45735;DHT22;31446;49.632;8.328;2023-05-10T00:16:13;13.70;99.90
45735;DHT22;31446;49.632;8.328;2023-05-10T00:31:20;13.70;99.90
45735;DHT22;31446;49.632;8.328;2023-05-10T00:46:26;13.60;99.90
45735;DHT22;31446;49.632;8.328;2023-05-10T01:01:32;13.60;99.90
45735;DHT22;31446;49.632;8.328;2023-05-10T01:16:40;13.50;99.90
45735;DHT22;31446;49.632;8.328;2023-05-10T01:47:27;13.40;99.90
45735;DHT22;31446;49.632;8.328;2023-05-10T02:02:39;13.30;99.90
45735;DHT22;31446;49.632;8.328;2023-05-10T02:17:47;13.20;99.90
45735;DHT22;31446;49.632;8.328;2023-05-10T02:32:53;13.20;99.90
45735;DHT22;31446;49.632;8.328;2023-05-10T02:48:04;13.30;99.90
45735;DHT22;31446;49.632;8.328;2023-05-10T03:03:10;13.20;99.90
45735;DHT22;31446;49.632;8.328;2023-05-10T03:18:22;13.20;99.90
45735;DHT22;31446;49.632;8.328;2023-05-10T03:33:29;13.20;99.90
45735;DHT22;31446;49.632;8.328;2023-05-10T03:48:35;13.20;99.90
45735;DHT22;31446;49.632;8.328;2023-05-10T04:03:42;13.20;99.90
45735;DHT22;31446;49.632;8.328;2023-05-10T04:18:48;12.90;99.90
45735;DHT22;31446;49.632;8.328;2023-05-10T04:33:55;12.70;99.90
45735;DHT22;31446;49.632;8.328;2023-05-10T04:49:06;12.70;99.90
45735;DHT22;31446;49.632;8.328;2023-05-10T05:04:18;12.50;99.90
45735;DHT22;31446;49.632;8.328;2023-05-10T05:19:26;12.60;99.90
45735;DHT22;31446;49.632;8.328;2023-05-10T05:34:32;12.90;99.90
45735;DHT22;31446;49.632;8.328;2023-05-10T05:49:38;13.40;99.90
45735;DHT22;31446;49.632;8.328;2023-05-10T06:04:45;13.60;99.90
45735;DHT22;31446;49.632;8.328;2023-05-10T06:19:51;13.80;99.90
45735;DHT22;31446;49.632;8.328;2023-05-10T06:34:57;14.30;99.90
45735;DHT22;31446;49.632;8.328;2023-05-10T06:50:04;15.00;99.90
45735;DHT22;31446;49.632;8.328;2023-05-10T07:05:11;15.20;99.90
45735;DHT22;31446;49.632;8.328;2023-05-10T07:20:18;15.80;99.90
45735;DHT22;31446;49.632;8.328;2023-05-10T07:35:24;16.10;99.90
45735;DHT22;31446;49.632;8.328;2023-05-10T07:50:31;16.00;99.90
45735;DHT22;31446;49.632;8.328;2023-05-10T08:05:37;16.00;99.90
45735;DHT22;31446;49.632;8.328;2023-05-10T08:20:43;16.80;99.90
45735;DHT22;31446;49.632;8.328;2023-05-10T08:35:49;17.30;99.90
45735;DHT22;31446;49.632;8.328;2023-05-10T08:50:58;17.40;99.90
45735;DHT22;31446;49.632;8.328;2023-05-10T09:06:05;17.70;99.90
45735;DHT22;31446;49.632;8.328;2023-05-10T09:21:12;18.10;99.90
45735;DHT22;31446;49.632;8.328;2023-05-10T09:36:19;17.70;99.90
45735;DHT22;31446;49.632;8.328;2023-05-10T09:51:25;18.50;99.90
45735;DHT22;31446;49.632;8.328;2023-05-10T10:06:35;17.90;99.90
45735;DHT22;31446;49.632;8.328;2023-05-10T10:21:41;17.90;99.90
45735;DHT22;31446;49.632;8.328;2023-05-10T10:36:48;18.30;99.90
45735;DHT22;31446;49.632;8.328;2023-05-10T10:52:15;18.70;99.90
45735;DHT22;31446;49.632;8.328;2023-05-10T11:07:29;18.80;99.90
45735;DHT22;31446;49.632;8.328;2023-05-10T11:22:49;18.90;99.90
45735;DHT22;31446;49.632;8.328;2023-05-10T11:37:55;19.50;99.90
45735;DHT22;31446;49.632;8.328;2023-05-10T11:53:01;20.20;99.90
45735;DHT22;31446;49.632;8.328;2023-05-10T12:08:15;20.40;99.90
45735;DHT22;31446;49.632;8.328;2023-05-10T12:23:26;20.40;99.90
45735;DHT22;31446;49.632;8.328;2023-05-10T12:38:34;20.00;99.90
45735;DHT22;31446;49.632;8.328;2023-05-10T12:53:41;18.90;99.90
45735;DHT22;31446;49.632;8.328;2023-05-10T13:08:48;18.80;99.90
45735;DHT22;31446;49.632;8.328;2023-05-10T13:23:55;19.30;99.90
45735;DHT22;31446;49.632;8.328;2023-05-10T13:39:01;20.20;99.90
45735;DHT22;31446;49.632;8.328;2023-05-10T13:54:08;19.50;99.90
45735;DHT22;31446;49.632;8.328;2023-05-10T14:09:15;19.70;99.90
45735;DHT22;31446;49.632;8.328;2023-05-10T14:24:21;20.20;99.90
45735;DHT22;31446;49.632;8.328;2023-05-10T14:39:27;20.20;99.90
45735;DHT22;31446;49.632;8.328;2023-05-10T14:54:34;19.70;99.90
45735;DHT22;31446;49.632;8.328;2023-05-10T15:09:40;19.90;99.90
45735;DHT22;31446;49.632;8.328;2023-05-10T15:24:46;19.50;99.90
45735;DHT22;31446;49.632;8.328;2023-05-10T15:39:53;19.70;99.90
45735;DHT22;31446;49.632;8.328;2023-05-10T15:55:07;19.70;99.80
45735;DHT22;31446;49.632;8.328;2023-05-10T16:10:15;19.60;98.70
45735;DHT22;31446;49.632;8.328;2023-05-10T16:25:21;19.30;98.30
45735;DHT22;31446;49.632;8.328;2023-05-10T16:40:27;19.40;99.90
45735;DHT22;31446;49.632;8.328;2023-05-10T16:55:34;19.40;99.10
45735;DHT22;31446;49.632;8.328;2023-05-10T17:10:43;19.40;99.00
45735;DHT22;31446;49.632;8.328;2023-05-10T17:25:51;19.60;98.50
45735;DHT22;31446;49.632;8.328;2023-05-10T17:40:58;19.20;99.60
45735;DHT22;31446;49.632;8.328;2023-05-10T17:56:05;19.10;99.70
45735;DHT22;31446;49.632;8.328;2023-05-10T18:11:13;18.50;99.90
45735;DHT22;31446;49.632;8.328;2023-05-10T18:26:27;18.20;99.90
45735;DHT22;31446;49.632;8.328;2023-05-10T18:41:33;18.70;99.90
45735;DHT22;31446;49.632;8.328;2023-05-10T18:56:40;17.80;99.90
45735;DHT22;31446;49.632;8.328;2023-05-10T19:11:51;16.30;99.90
45735;DHT22;31446;49.632;8.328;2023-05-10T19:26:57;15.60;99.90
45735;DHT22;31446;49.632;8.328;2023-05-10T19:42:04;15.10;99.90
45735;DHT22;31446;49.632;8.328;2023-05-10T19:57:28;14.70;99.90
45735;DHT22;31446;49.632;8.328;2023-05-10T20:12:51;14.30;99.90
45735;DHT22;31446;49.632;8.328;2023-05-10T20:27:58;14.10;99.90
45735;DHT22;31446;49.632;8.328;2023-05-10T20:58:58;13.60;99.90
45735;DHT22;31446;49.632;8.328;2023-05-10T21:14:06;13.20;99.90
45735;DHT22;31446;49.632;8.328;2023-05-10T21:29:12;12.80;99.90
45735;DHT22;31446;49.632;8.328;2023-05-10T21:44:19;12.60;99.90
45735;DHT22;31446;49.632;8.328;2023-05-10T21:59:26;12.30;99.90
45735;DHT22;31446;49.632;8.328;2023-05-10T22:14:35;11.90;99.90
45735;DHT22;31446;49.632;8.328;2023-05-10T22:29:45;11.80;99.90
45735;DHT22;31446;49.632;8.328;2023-05-10T22:44:53;11.90;99.90
45735;DHT22;31446;49.632;8.328;2023-05-10T23:00:01;11.90;99.90
45735;DHT22;31446;49.632;8.328;2023-05-10T23:15:09;11.60;99.90
45735;DHT22;31446;49.632;8.328;2023-05-10T23:30:16;11.40;99.90
45735;DHT22;31446;49.632;8.328;2023-05-10T23:45:23;11.20;99.90
